Huvudsida
METAR-TAF:

METAR-TAF

Flygplatser :

Brønnøysund, Norge

Brønnøysunds flygplats. Brønnøy

latitud: 65-28N, longitud: 012-13E, höjd: 0 m

Aktuellt väderrapport

Denna rapport gjordes för 20 minuter sedan, klockan 03:20 UTC
Vind 14 kt från ost/sydost, varierande mellan ost och syd/sydost
Temperatur -4°C
Fuktighet 63%
Tryck 996 hPa
Sikt 10 km eller mer

METAR: ENBN 190320Z AUTO 12014KT 080V160 9999NDV NCD M04/M10 Q0996

Tid: 04:40 (03:40 UTC)

Väderprognos

Denna rapport gjordes för 13 timmar och 40 minuter sedan, klockan 14:00 UTC
Prognos gäller från 18 kl. 15 UTC till 18 kl. 20 UTC
Vind 18 kt från sydost
Sikt 10 km eller mer
Inga moln under 1 500 m eller inga cumulonimbus
Temporärt
från 18 kl. 15 UTC till 18 kl. 20 UTC
Vind 25 kt från sydost i byarna ända upp till 35 kt

TAF: ENBN 181400Z 1815/1820 13018KT CAVOK TEMPO 1815/1820 13025G35KT

Aktuella väderrapporter och prognoser från 4000 flygplatser (METAR- och TAF-rapporter).

De tillgängliga stationerna syns som gula och röda prickar på kartan.

För musen över prickarna för att se namnen på stationerna.

Klicka sedan för att få väderrapporter och prognoser.

För att ändra kartan: Klicka på de gröna knapparna med ett svart kors på för att zooma in; den gröna knappen med ett streck på för att zooma ut; eller på de gröna pilarna för angränsande kartor.


METAR-TAF: